createdAt,value
2022-11-20T00:00:00.838Z,30.80
2022-11-20T00:00:49.077Z,30.17
2022-11-20T00:01:37.141Z,29.73
2022-11-20T00:02:26.318Z,29.87
2022-11-20T00:03:15.203Z,29.87
2022-11-20T00:04:03.429Z,29.55
2022-11-20T00:04:51.355Z,31.35
2022-11-20T00:05:38.406Z,30.48
2022-11-20T00:06:25.921Z,28.62
2022-11-20T00:07:12.943Z,30.52
2022-11-20T00:07:59.926Z,29.87
2022-11-20T00:08:47.562Z,29.98
2022-11-20T00:09:34.598Z,29.83
2022-11-20T00:10:21.705Z,29.55
2022-11-20T00:11:15.993Z,30.95
2022-11-20T00:12:03.770Z,29.48
2022-11-20T00:12:50.953Z,30.48
2022-11-20T00:13:38.007Z,30.30
2022-11-20T00:14:25.052Z,29.77
2022-11-20T00:15:12.055Z,30.58
2022-11-20T00:16:00.227Z,29.60
2022-11-20T00:16:47.587Z,29.67
2022-11-20T00:17:34.647Z,30.12
2022-11-20T00:18:21.605Z,29.92
2022-11-20T00:19:08.845Z,29.20
2022-11-20T00:19:55.861Z,30.80
2022-11-20T00:20:42.918Z,30.88
2022-11-20T00:21:30.555Z,30.17
2022-11-20T00:22:17.662Z,29.92
2022-11-20T00:23:04.677Z,31.80
2022-11-20T00:23:54.903Z,30.05
2022-11-20T00:24:43.276Z,31.23
2022-11-20T00:25:30.425Z,30.73
2022-11-20T00:26:19.358Z,29.50
2022-11-20T00:27:06.350Z,30.52
2022-11-20T00:27:53.368Z,32.00
2022-11-20T00:28:40.387Z,30.55
2022-11-20T00:29:27.317Z,33.25
2022-11-20T00:30:15.245Z,32.25
2022-11-20T00:31:10.926Z,31.62
2022-11-20T00:31:57.847Z,31.50
2022-11-20T00:32:44.867Z,31.17
2022-11-20T00:33:32.387Z,31.85
2022-11-20T00:34:19.417Z,31.87
2022-11-20T00:35:06.727Z,31.70
2022-11-20T00:35:53.777Z,32.13
2022-11-20T00:36:40.745Z,31.58
2022-11-20T00:37:28.000Z,31.62
2022-11-20T00:38:14.864Z,30.33
2022-11-20T00:39:01.843Z,31.83
2022-11-20T00:39:48.856Z,31.60
2022-11-20T00:40:35.825Z,32.15
2022-11-20T00:41:23.646Z,31.85
2022-11-20T00:42:10.707Z,31.50
2022-11-20T00:42:57.667Z,32.30
2022-11-20T00:43:44.879Z,31.35
2022-11-20T00:44:31.886Z,31.15
2022-11-20T00:45:18.882Z,29.37
2022-11-20T00:46:10.205Z,31.83
2022-11-20T00:46:57.287Z,30.55
2022-11-20T00:47:44.296Z,30.55
2022-11-20T00:48:31.494Z,32.83
2022-11-20T00:49:18.842Z,31.65
2022-11-20T00:50:06.359Z,31.20
2022-11-20T00:50:53.426Z,31.12
2022-11-20T00:51:40.367Z,32.05
2022-11-20T00:52:27.325Z,31.37
2022-11-20T00:53:14.408Z,31.37
2022-11-20T00:54:03.257Z,30.37
2022-11-20T00:54:50.225Z,30.75
2022-11-20T00:55:37.225Z,31.12
2022-11-20T00:56:24.207Z,29.40
2022-11-20T00:57:11.218Z,31.35
2022-11-20T00:57:58.224Z,31.35
2022-11-20T00:58:46.887Z,29.70
2022-11-20T00:59:33.845Z,31.30
2022-11-20T01:00:20.851Z,31.08
2022-11-20T01:01:09.966Z,29.80
2022-11-20T01:01:56.954Z,31.00
2022-11-20T01:02:43.978Z,31.45
2022-11-20T01:03:33.556Z,32.25
2022-11-20T01:04:20.497Z,30.55
2022-11-20T01:05:07.677Z,31.37
2022-11-20T01:05:54.668Z,30.10
2022-11-20T01:06:41.748Z,31.77
2022-11-20T01:07:28.683Z,31.12
2022-11-20T01:08:15.727Z,31.48
2022-11-20T01:09:07.177Z,29.67
2022-11-20T01:09:54.107Z,31.00
2022-11-20T01:10:41.801Z,32.72
2022-11-20T01:11:31.068Z,31.30
2022-11-20T01:12:18.027Z,31.10
2022-11-20T01:13:25.753Z,31.08
2022-11-20T01:14:17.608Z,30.05
2022-11-20T01:15:04.937Z,30.17
2022-11-20T01:15:51.975Z,29.98
2022-11-20T01:16:41.229Z,32.65
2022-11-20T01:17:28.138Z,30.42
2022-11-20T01:18:15.132Z,30.17
2022-11-20T01:19:04.654Z,30.90
2022-11-20T01:19:52.068Z,31.17
2022-11-20T01:20:39.056Z,29.95
2022-11-20T01:21:27.626Z,31.70
2022-11-20T01:22:14.574Z,31.87
2022-11-20T01:23:01.547Z,31.50
2022-11-20T01:23:49.451Z,31.12
2022-11-20T01:24:36.550Z,31.40
2022-11-20T01:25:23.503Z,30.52
2022-11-20T01:26:13.038Z,29.95
2022-11-20T01:27:00.105Z,31.92
2022-11-20T01:27:47.098Z,30.40
2022-11-20T01:28:34.597Z,28.62
2022-11-20T01:29:24.607Z,31.75
2022-11-20T01:30:12.406Z,31.08
2022-11-20T01:30:59.839Z,31.37
2022-11-20T01:31:46.967Z,30.10
2022-11-20T01:32:34.134Z,30.50
2022-11-20T01:33:21.095Z,30.33
2022-11-20T01:34:13.457Z,30.67
2022-11-20T01:35:00.496Z,31.30
2022-11-20T01:35:47.765Z,31.52
2022-11-20T01:36:37.153Z,29.58
2022-11-20T01:37:24.068Z,31.73
2022-11-20T01:38:11.076Z,31.77
2022-11-20T01:39:00.854Z,31.30
2022-11-20T01:39:47.827Z,34.00
2022-11-20T01:40:34.755Z,31.25
2022-11-20T01:41:41.638Z,31.58
2022-11-20T01:42:47.587Z,32.10
2022-11-20T01:43:34.825Z,30.50
2022-11-20T01:44:24.137Z,31.45
2022-11-20T01:45:48.168Z,31.73
2022-11-20T01:46:37.998Z,30.35
2022-11-20T01:47:31.148Z,30.70
2022-11-20T01:48:19.554Z,32.38
2022-11-20T01:49:09.158Z,32.13
2022-11-20T01:50:02.048Z,33.72
2022-11-20T01:50:49.536Z,30.77
2022-11-20T01:51:40.832Z,30.30
2022-11-20T01:52:41.410Z,31.37
2022-11-20T01:53:33.178Z,28.98
2022-11-20T01:54:25.226Z,30.02
2022-11-20T01:55:16.559Z,31.87
2022-11-20T01:56:04.850Z,32.20
2022-11-20T01:56:53.326Z,32.45
2022-11-20T01:57:41.096Z,31.95
2022-11-20T01:58:33.934Z,31.65
2022-11-20T01:59:21.423Z,31.52
2022-11-20T02:00:12.476Z,31.75
2022-11-20T02:01:00.648Z,32.28
2022-11-20T02:01:47.829Z,32.20
2022-11-20T02:02:35.683Z,31.23
2022-11-20T02:03:22.636Z,32.05
2022-11-20T02:04:09.930Z,31.52
2022-11-20T02:04:59.088Z,30.37
2022-11-20T02:06:14.673Z,31.10
2022-11-20T02:07:02.655Z,28.90
2022-11-20T02:07:49.689Z,31.85
2022-11-20T02:08:37.139Z,30.85
2022-11-20T02:09:24.259Z,31.20
2022-11-20T02:10:11.467Z,30.75
2022-11-20T02:10:58.597Z,30.20
2022-11-20T02:11:45.557Z,30.62
2022-11-20T02:12:50.997Z,31.02
2022-11-20T02:13:46.882Z,31.85
2022-11-20T02:14:33.827Z,30.62
2022-11-20T02:15:20.757Z,30.70
2022-11-20T02:16:11.746Z,31.75
2022-11-20T02:16:58.726Z,29.92
2022-11-20T02:17:45.597Z,30.92
2022-11-20T02:18:32.502Z,30.65
2022-11-20T02:19:32.638Z,31.05
2022-11-20T02:20:19.522Z,29.37
2022-11-20T02:21:41.998Z,30.27
2022-11-20T02:23:01.797Z,30.55
2022-11-20T02:24:00.746Z,28.52
2022-11-20T02:24:47.949Z,30.17
2022-11-20T02:25:35.178Z,30.80
2022-11-20T02:26:23.437Z,32.08
2022-11-20T02:27:12.814Z,32.35
2022-11-20T02:27:59.901Z,31.42
2022-11-20T02:28:46.757Z,32.33
2022-11-20T02:29:36.848Z,34.58
2022-11-20T02:30:23.801Z,33.35
2022-11-20T02:31:10.637Z,32.60
2022-11-20T02:31:59.188Z,33.10
2022-11-20T02:32:46.068Z,33.10
2022-11-20T02:33:33.032Z,33.17
2022-11-20T02:34:19.918Z,33.70
2022-11-20T02:35:20.328Z,31.85
2022-11-20T02:36:10.757Z,30.98
2022-11-20T02:36:58.138Z,33.35
2022-11-20T02:37:45.608Z,33.38
2022-11-20T02:38:32.872Z,32.35
2022-11-20T02:39:20.815Z,31.55
2022-11-20T02:40:08.709Z,32.97
2022-11-20T02:40:55.965Z,33.05
2022-11-20T02:41:42.937Z,31.75
2022-11-20T02:42:29.846Z,32.42
2022-11-20T02:43:17.401Z,31.15
2022-11-20T02:44:05.265Z,30.70
2022-11-20T02:44:52.076Z,31.20
2022-11-20T02:45:39.137Z,31.48
2022-11-20T02:46:25.992Z,32.42
2022-11-20T02:47:12.866Z,30.35
2022-11-20T02:47:59.825Z,31.67
2022-11-20T02:48:46.786Z,31.40
2022-11-20T02:49:34.206Z,29.58
2022-11-20T02:50:21.202Z,31.30
2022-11-20T02:51:08.208Z,31.90
2022-11-20T02:51:55.050Z,32.72
2022-11-20T02:52:42.485Z,31.10
2022-11-20T02:53:29.668Z,30.48
2022-11-20T02:54:16.461Z,31.25
2022-11-20T02:55:03.998Z,31.45
2022-11-20T02:55:50.867Z,30.73
2022-11-20T02:56:39.761Z,33.92
2022-11-20T02:57:26.666Z,31.23
2022-11-20T02:58:13.656Z,32.00
2022-11-20T02:59:00.497Z,31.55
2022-11-20T02:59:47.387Z,33.08
2022-11-20T03:00:34.894Z,31.92
2022-11-20T03:01:21.807Z,32.10
2022-11-20T03:02:08.667Z,31.50
2022-11-20T03:02:55.548Z,31.60
2022-11-20T03:03:42.428Z,30.45
2022-11-20T03:04:29.451Z,31.35
2022-11-20T03:05:16.457Z,31.90
2022-11-20T03:06:03.466Z,32.00
2022-11-20T03:06:50.332Z,31.85
2022-11-20T03:07:37.275Z,31.27
2022-11-20T03:08:24.106Z,32.50
2022-11-20T03:09:11.028Z,31.23
2022-11-20T03:09:57.907Z,34.10
2022-11-20T03:10:44.766Z,32.65
2022-11-20T03:11:31.649Z,34.05
2022-11-20T03:12:18.567Z,32.80
2022-11-20T03:13:05.893Z,31.62
2022-11-20T03:13:53.047Z,31.02
2022-11-20T03:14:41.967Z,34.28
2022-11-20T03:15:30.587Z,31.67
2022-11-20T03:16:21.578Z,30.25
2022-11-20T03:17:09.337Z,31.87
2022-11-20T03:17:57.367Z,32.47
2022-11-20T03:18:45.299Z,33.20
2022-11-20T03:19:33.750Z,31.27
2022-11-20T03:20:21.865Z,32.38
2022-11-20T03:21:11.607Z,32.00
2022-11-20T03:21:59.587Z,31.02
2022-11-20T03:22:46.758Z,32.42
2022-11-20T03:23:34.298Z,31.77
2022-11-20T03:24:21.177Z,30.77
2022-11-20T03:25:08.577Z,32.83
2022-11-20T03:25:55.508Z,31.02
2022-11-20T03:26:42.447Z,29.98
2022-11-20T03:27:33.837Z,30.02
2022-11-20T03:29:07.558Z,32.08
2022-11-20T03:29:54.489Z,32.00
2022-11-20T03:30:42.137Z,30.55
2022-11-20T03:31:37.037Z,30.80
2022-11-20T03:32:23.927Z,32.05
2022-11-20T03:33:11.018Z,31.92
2022-11-20T03:33:59.031Z,31.30
2022-11-20T03:34:45.849Z,31.30
2022-11-20T03:35:32.725Z,32.38
2022-11-20T03:36:20.926Z,32.03
2022-11-20T03:37:07.878Z,32.90
2022-11-20T03:37:54.646Z,32.30
2022-11-20T03:38:42.268Z,32.05
2022-11-20T03:39:29.114Z,31.95
2022-11-20T03:40:16.039Z,31.00
2022-11-20T03:41:05.398Z,31.62
2022-11-20T03:41:52.315Z,31.58
2022-11-20T03:42:48.341Z,32.10
2022-11-20T03:43:35.537Z,33.70
2022-11-20T03:44:22.738Z,32.22
2022-11-20T03:45:09.979Z,32.00
2022-11-20T03:45:57.019Z,32.47
2022-11-20T03:46:43.837Z,32.10
2022-11-20T03:47:30.688Z,32.20
2022-11-20T03:48:17.508Z,33.42
2022-11-20T03:49:04.823Z,32.75
2022-11-20T03:49:51.639Z,32.63
2022-11-20T03:50:38.426Z,33.30
2022-11-20T03:51:33.277Z,32.85
2022-11-20T03:52:20.186Z,33.00
2022-11-20T03:53:07.018Z,32.00
2022-11-20T03:53:55.587Z,32.80
2022-11-20T03:54:42.407Z,31.58
2022-11-20T03:55:29.266Z,32.08
2022-11-20T03:56:19.232Z,33.53
2022-11-20T03:57:06.187Z,32.25
2022-11-20T03:57:53.107Z,33.42
2022-11-20T03:58:40.777Z,33.35
2022-11-20T03:59:27.608Z,31.17
2022-11-20T04:00:15.088Z,31.92
2022-11-20T04:01:14.502Z,33.45
2022-11-20T04:02:01.432Z,31.87
2022-11-20T04:02:48.349Z,33.90
2022-11-20T04:03:36.256Z,30.50
2022-11-20T04:04:23.117Z,31.80
2022-11-20T04:05:09.963Z,32.55
2022-11-20T04:05:56.856Z,31.98
2022-11-20T04:06:43.666Z,34.15
2022-11-20T04:07:30.587Z,32.25
2022-11-20T04:08:17.458Z,31.98
2022-11-20T04:09:04.767Z,32.03
2022-11-20T04:09:51.646Z,33.38
2022-11-20T04:10:38.868Z,32.63
2022-11-20T04:11:28.548Z,32.67
2022-11-20T04:12:15.387Z,31.42
2022-11-20T04:13:02.457Z,32.67
2022-11-20T04:13:56.517Z,32.40
2022-11-20T04:14:43.395Z,33.47
2022-11-20T04:15:32.345Z,34.08
2022-11-20T04:16:23.737Z,34.38
2022-11-20T04:17:10.597Z,32.05
2022-11-20T04:17:57.478Z,31.67
2022-11-20T04:18:45.135Z,34.47
2022-11-20T04:19:32.039Z,33.00
2022-11-20T04:20:18.857Z,33.38
2022-11-20T04:21:06.418Z,33.13
2022-11-20T04:21:53.239Z,34.10
2022-11-20T04:22:40.086Z,33.53
2022-11-20T04:23:28.989Z,32.83
2022-11-20T04:24:16.019Z,34.35
2022-11-20T04:25:02.906Z,33.42
2022-11-20T04:25:49.775Z,33.67
2022-11-20T04:26:36.606Z,33.58
2022-11-20T04:27:23.457Z,34.08
2022-11-20T04:28:10.647Z,33.72
2022-11-20T04:28:58.777Z,33.63
2022-11-20T04:29:45.680Z,34.38
2022-11-20T04:30:32.588Z,33.00
2022-11-20T04:31:22.241Z,33.42
2022-11-20T04:32:09.057Z,32.53
2022-11-20T04:32:55.897Z,32.35
2022-11-20T04:33:43.159Z,31.92
2022-11-20T04:34:30.077Z,30.17
2022-11-20T04:35:16.978Z,31.92
2022-11-20T04:36:21.379Z,31.05
2022-11-20T04:37:08.237Z,32.78
2022-11-20T04:37:55.109Z,32.83
2022-11-20T04:38:42.059Z,31.70
2022-11-20T04:39:28.977Z,32.72
2022-11-20T04:40:15.917Z,31.37
2022-11-20T04:41:05.008Z,32.00
2022-11-20T04:42:11.797Z,31.02
2022-11-20T04:42:58.674Z,30.70
2022-11-20T04:43:50.055Z,31.67
2022-11-20T04:44:36.887Z,29.33
2022-11-20T04:45:24.456Z,31.62
2022-11-20T04:46:11.377Z,31.70
2022-11-20T04:46:58.197Z,30.50
2022-11-20T04:47:45.097Z,29.90
2022-11-20T04:48:32.066Z,29.05
2022-11-20T04:49:19.047Z,29.23
2022-11-20T04:50:06.637Z,30.15
2022-11-20T04:50:54.202Z,29.75
2022-11-20T04:51:41.050Z,29.42
2022-11-20T04:52:27.927Z,30.02
2022-11-20T04:53:14.958Z,29.40
2022-11-20T04:54:02.246Z,29.60
2022-11-20T04:54:49.108Z,31.50
2022-11-20T04:55:35.918Z,30.85
2022-11-20T04:56:23.037Z,29.63
2022-11-20T04:57:14.293Z,29.00
2022-11-20T04:58:01.496Z,27.85
2022-11-20T04:58:48.399Z,29.65
2022-11-20T04:59:35.227Z,28.48
2022-11-20T05:00:22.386Z,28.20
2022-11-20T05:01:14.951Z,29.70
2022-11-20T05:02:01.887Z,28.65
2022-11-20T05:02:48.804Z,28.55
2022-11-20T05:03:41.008Z,28.90
2022-11-20T05:04:29.187Z,28.08
2022-11-20T05:05:16.127Z,28.12
2022-11-20T05:06:05.406Z,28.02
2022-11-20T05:06:52.325Z,27.40
2022-11-20T05:07:39.279Z,29.33
2022-11-20T05:08:26.127Z,29.70
2022-11-20T05:09:15.888Z,28.55
2022-11-20T05:10:02.759Z,28.62
2022-11-20T05:10:49.619Z,27.67
2022-11-20T05:11:36.523Z,28.77
2022-11-20T05:12:23.407Z,27.52
2022-11-20T05:13:10.219Z,28.10
2022-11-20T05:13:59.957Z,27.58
2022-11-20T05:14:46.836Z,29.00
2022-11-20T05:15:33.856Z,27.85
2022-11-20T05:16:24.990Z,27.65
2022-11-20T05:17:13.292Z,28.17
2022-11-20T05:18:00.166Z,28.30
2022-11-20T05:18:47.409Z,27.80
2022-11-20T05:19:34.367Z,27.83
2022-11-20T05:20:21.747Z,26.60
2022-11-20T05:21:09.626Z,27.05
2022-11-20T05:21:56.498Z,28.35
2022-11-20T05:22:43.859Z,27.13
2022-11-20T05:23:32.310Z,27.27
2022-11-20T05:24:19.208Z,27.70
2022-11-20T05:25:06.557Z,27.65
2022-11-20T05:25:58.954Z,28.40
2022-11-20T05:26:46.359Z,27.35
2022-11-20T05:27:33.269Z,27.75
2022-11-20T05:28:20.168Z,30.15
2022-11-20T05:29:06.980Z,28.62
2022-11-20T05:29:53.837Z,28.45
2022-11-20T05:30:40.747Z,29.80
2022-11-20T05:31:28.514Z,28.77
2022-11-20T05:32:15.446Z,28.80
2022-11-20T05:33:02.257Z,28.50
2022-11-20T05:33:49.077Z,28.33
2022-11-20T05:34:35.937Z,28.08
2022-11-20T05:35:22.847Z,28.90
2022-11-20T05:36:10.493Z,27.85
2022-11-20T05:36:57.427Z,27.30
2022-11-20T05:37:44.346Z,28.70
2022-11-20T05:38:31.352Z,28.15
2022-11-20T05:39:18.353Z,28.00
2022-11-20T05:40:05.937Z,28.70
2022-11-20T05:40:52.846Z,27.87
2022-11-20T05:41:39.686Z,27.92
2022-11-20T05:42:32.623Z,27.27
2022-11-20T05:43:19.518Z,27.87
2022-11-20T05:44:06.420Z,28.15
2022-11-20T05:44:53.239Z,27.92
2022-11-20T05:45:40.137Z,29.45
2022-11-20T05:46:28.973Z,27.10
2022-11-20T05:47:16.417Z,28.52
2022-11-20T05:48:03.472Z,27.58
2022-11-20T05:48:50.368Z,28.15
2022-11-20T05:49:37.257Z,28.17
2022-11-20T05:50:24.068Z,28.15
2022-11-20T05:51:13.497Z,28.73
2022-11-20T05:52:00.347Z,28.52
2022-11-20T05:52:47.250Z,29.12
2022-11-20T05:53:35.417Z,28.05
2022-11-20T05:54:22.249Z,28.62
2022-11-20T05:55:09.558Z,28.58
2022-11-20T05:56:05.087Z,28.87
2022-11-20T05:56:51.971Z,27.05
2022-11-20T05:57:38.847Z,26.98
2022-11-20T05:58:25.897Z,28.35
2022-11-20T05:59:12.777Z,25.30
2022-11-20T05:59:59.578Z,27.60
2022-11-20T06:00:46.438Z,27.60
2022-11-20T06:01:33.407Z,28.23
2022-11-20T06:02:20.283Z,28.52
2022-11-20T06:03:07.177Z,28.58
2022-11-20T06:03:55.126Z,26.60
2022-11-20T06:04:42.039Z,28.27
2022-11-20T06:05:28.915Z,27.58
2022-11-20T06:06:16.832Z,26.73
2022-11-20T06:07:03.887Z,27.58
2022-11-20T06:07:50.806Z,26.05
2022-11-20T06:08:37.640Z,29.08
2022-11-20T06:09:24.456Z,28.48
2022-11-20T06:10:11.777Z,27.30
2022-11-20T06:10:58.946Z,26.40
2022-11-20T06:11:45.778Z,26.67
2022-11-20T06:12:34.111Z,28.65
2022-11-20T06:13:21.019Z,26.50
2022-11-20T06:14:07.837Z,29.27
2022-11-20T06:14:54.679Z,28.00
2022-11-20T06:15:41.499Z,27.02
2022-11-20T06:16:28.468Z,29.05
2022-11-20T06:17:15.296Z,27.45
2022-11-20T06:18:02.198Z,29.37
2022-11-20T06:18:49.246Z,28.23
2022-11-20T06:19:36.087Z,29.92
2022-11-20T06:20:23.448Z,29.17
2022-11-20T06:21:18.888Z,26.02
2022-11-20T06:22:05.747Z,27.58
2022-11-20T06:22:52.608Z,27.98
2022-11-20T06:23:39.767Z,26.98
2022-11-20T06:24:27.347Z,28.50
2022-11-20T06:25:15.448Z,28.20
2022-11-20T06:26:14.673Z,28.60
2022-11-20T06:27:01.818Z,27.10
2022-11-20T06:27:48.696Z,28.67
2022-11-20T06:28:36.720Z,26.80
2022-11-20T06:29:23.968Z,29.27
2022-11-20T06:30:11.677Z,28.48
2022-11-20T06:31:00.316Z,29.40
2022-11-20T06:31:47.717Z,29.85
2022-11-20T06:32:35.317Z,28.23
2022-11-20T06:33:22.517Z,28.12
2022-11-20T06:34:10.406Z,28.48
2022-11-20T06:34:57.497Z,29.17
2022-11-20T06:35:46.237Z,27.65
2022-11-20T06:36:33.626Z,27.87
2022-11-20T06:37:20.596Z,26.95
2022-11-20T06:38:07.596Z,28.65
2022-11-20T06:38:54.808Z,28.42
2022-11-20T06:39:41.718Z,27.25
2022-11-20T06:40:28.556Z,28.23
2022-11-20T06:41:17.668Z,28.70
2022-11-20T06:42:04.520Z,28.80
2022-11-20T06:42:51.330Z,28.05
2022-11-20T06:43:38.287Z,27.98
2022-11-20T06:44:25.188Z,27.35
2022-11-20T06:45:12.128Z,29.10
2022-11-20T06:46:00.161Z,28.05
2022-11-20T06:46:47.067Z,27.75
2022-11-20T06:47:34.500Z,28.20
2022-11-20T06:48:21.812Z,27.83
2022-11-20T06:49:08.698Z,27.83
2022-11-20T06:49:55.617Z,27.20
2022-11-20T06:50:42.498Z,29.23
2022-11-20T06:51:29.397Z,28.52
2022-11-20T06:52:16.237Z,28.85
2022-11-20T06:53:04.306Z,28.38
2022-11-20T06:53:51.139Z,29.23
2022-11-20T06:54:37.948Z,29.25
2022-11-20T06:55:24.828Z,29.00
2022-11-20T06:56:11.738Z,28.85
2022-11-20T06:56:58.648Z,27.92
2022-11-20T06:57:45.568Z,28.12
2022-11-20T06:58:33.768Z,29.30
2022-11-20T06:59:20.993Z,27.55
2022-11-20T07:00:08.578Z,29.55
2022-11-20T07:00:59.717Z,31.15
2022-11-20T07:01:46.572Z,30.30
2022-11-20T07:02:33.419Z,29.90
2022-11-20T07:03:20.364Z,27.62
2022-11-20T07:04:07.326Z,28.08
2022-11-20T07:04:54.253Z,29.20
2022-11-20T07:05:41.428Z,28.48
2022-11-20T07:06:28.527Z,29.98
2022-11-20T07:07:15.474Z,30.45
2022-11-20T07:08:02.907Z,29.45
2022-11-20T07:08:52.637Z,28.25
2022-11-20T07:09:39.588Z,27.67
2022-11-20T07:10:27.288Z,31.85
2022-11-20T07:11:14.290Z,28.60
2022-11-20T07:12:01.589Z,29.65
2022-11-20T07:12:54.728Z,31.35
2022-11-20T07:13:41.637Z,31.60
2022-11-20T07:14:28.516Z,31.02
2022-11-20T07:15:15.347Z,31.62
2022-11-20T07:16:08.025Z,30.08
2022-11-20T07:16:54.918Z,30.88
2022-11-20T07:17:41.738Z,29.65
2022-11-20T07:18:28.577Z,30.35
2022-11-20T07:19:15.568Z,30.52
2022-11-20T07:20:02.387Z,30.08
2022-11-20T07:20:49.199Z,28.98
2022-11-20T07:21:35.986Z,29.98
2022-11-20T07:22:22.918Z,30.27
2022-11-20T07:23:09.826Z,29.48
2022-11-20T07:23:56.767Z,31.48
2022-11-20T07:24:46.132Z,29.60
2022-11-20T07:25:33.318Z,30.88
2022-11-20T07:26:20.758Z,31.12
2022-11-20T07:27:07.627Z,30.90
2022-11-20T07:27:58.238Z,31.42
2022-11-20T07:29:32.406Z,30.52
2022-11-20T07:30:19.636Z,31.40
2022-11-20T07:31:08.580Z,30.58
2022-11-20T07:31:56.825Z,31.45
2022-11-20T07:32:44.817Z,29.75
2022-11-20T07:33:32.398Z,32.40
2022-11-20T07:34:20.787Z,31.27
2022-11-20T07:35:08.229Z,30.52
2022-11-20T07:35:55.137Z,30.30
2022-11-20T07:36:43.317Z,33.08
2022-11-20T07:37:30.904Z,29.85
2022-11-20T07:38:19.565Z,30.48
2022-11-20T07:39:06.897Z,31.08
2022-11-20T07:39:53.717Z,30.45
2022-11-20T07:40:41.169Z,29.58
2022-11-20T07:41:29.047Z,31.20
2022-11-20T07:42:15.887Z,32.47
2022-11-20T07:43:02.717Z,31.08
2022-11-20T07:43:49.518Z,29.80
2022-11-20T07:44:37.477Z,30.10
2022-11-20T07:45:26.141Z,29.90
2022-11-20T07:46:12.958Z,32.13
2022-11-20T07:47:00.507Z,32.33
2022-11-20T07:47:50.668Z,31.42
2022-11-20T07:48:38.417Z,31.83
2022-11-20T07:49:25.498Z,32.20
2022-11-20T07:50:12.951Z,32.42
2022-11-20T07:51:00.004Z,33.05
2022-11-20T07:51:50.270Z,31.77
2022-11-20T07:52:38.956Z,31.62
2022-11-20T07:53:26.081Z,30.92
2022-11-20T07:54:12.905Z,31.42
2022-11-20T07:54:59.756Z,32.30
2022-11-20T07:55:46.646Z,32.90
2022-11-20T07:56:33.477Z,32.80
2022-11-20T07:57:24.292Z,30.88
2022-11-20T07:58:15.060Z,33.22
2022-11-20T07:59:01.928Z,34.13
2022-11-20T07:59:48.828Z,33.60
2022-11-20T08:00:35.812Z,31.65
2022-11-20T08:01:22.803Z,33.38
2022-11-20T08:02:12.397Z,32.38
2022-11-20T08:02:59.926Z,32.33
2022-11-20T08:03:46.803Z,31.02
2022-11-20T08:04:34.398Z,32.35
2022-11-20T08:05:21.530Z,33.15
2022-11-20T08:06:08.874Z,32.75
2022-11-20T08:06:55.787Z,30.48
2022-11-20T08:07:44.611Z,30.77
2022-11-20T08:08:33.796Z,31.25
2022-11-20T08:09:21.004Z,30.37
2022-11-20T08:10:09.827Z,31.48
2022-11-20T08:11:19.827Z,32.72
2022-11-20T08:12:25.386Z,31.95
2022-11-20T08:13:30.977Z,29.63
2022-11-20T08:14:17.846Z,30.70
2022-11-20T08:15:11.326Z,32.05
2022-11-20T08:15:59.948Z,30.42
2022-11-20T08:16:48.748Z,31.33
2022-11-20T08:17:35.636Z,31.90
2022-11-20T08:18:31.738Z,30.98
2022-11-20T08:19:20.371Z,29.98
2022-11-20T08:20:07.881Z,30.05
2022-11-20T08:20:54.732Z,30.30
2022-11-20T08:21:42.125Z,31.08
2022-11-20T08:22:29.418Z,32.13
2022-11-20T08:23:18.098Z,31.65
2022-11-20T08:24:05.971Z,30.55
2022-11-20T08:24:53.768Z,30.02
2022-11-20T08:25:41.441Z,30.48
2022-11-20T08:26:30.084Z,29.92
2022-11-20T08:27:17.790Z,30.62
2022-11-20T08:28:19.859Z,30.27
2022-11-20T08:29:09.106Z,30.55
2022-11-20T08:29:57.228Z,30.92
2022-11-20T08:30:45.390Z,31.12
2022-11-20T08:31:35.079Z,29.77
2022-11-20T08:32:22.795Z,30.12
2022-11-20T08:33:11.828Z,30.77
2022-11-20T08:34:00.117Z,31.23
2022-11-20T08:34:48.486Z,31.70
2022-11-20T08:35:38.198Z,30.20
2022-11-20T08:36:26.778Z,30.60
2022-11-20T08:37:15.097Z,30.45
2022-11-20T08:38:05.059Z,30.30
2022-11-20T08:38:58.489Z,28.98
2022-11-20T08:39:48.142Z,32.05
2022-11-20T08:40:37.509Z,28.92
2022-11-20T08:41:28.691Z,32.50
2022-11-20T08:42:16.552Z,30.85
2022-11-20T08:43:03.648Z,29.75
2022-11-20T08:43:51.500Z,30.23
2022-11-20T08:44:38.326Z,30.95
2022-11-20T08:45:28.446Z,31.92
2022-11-20T08:46:19.537Z,29.37
2022-11-20T08:47:11.168Z,28.50
2022-11-20T08:48:02.127Z,30.65
2022-11-20T08:48:49.218Z,29.55
2022-11-20T08:49:36.299Z,30.27
2022-11-20T08:50:23.209Z,29.63
2022-11-20T08:51:10.707Z,28.23
2022-11-20T08:51:58.360Z,29.48
2022-11-20T08:52:45.358Z,29.58
2022-11-20T08:53:32.481Z,33.53
2022-11-20T08:54:21.159Z,31.90
2022-11-20T08:55:08.937Z,29.83
2022-11-20T08:55:56.007Z,31.25
2022-11-20T08:56:42.857Z,31.10
2022-11-20T08:57:29.790Z,31.60
2022-11-20T08:58:16.895Z,30.42
2022-11-20T09:00:12.510Z,27.65
2022-11-20T09:00:59.812Z,30.37
2022-11-20T09:01:47.099Z,30.50
2022-11-20T09:02:34.078Z,29.30
2022-11-20T09:03:21.068Z,29.27
2022-11-20T09:04:08.576Z,30.20
2022-11-20T09:04:55.604Z,31.00
2022-11-20T09:05:43.918Z,30.55
2022-11-20T09:06:30.948Z,31.95
2022-11-20T09:07:17.919Z,31.25
2022-11-20T09:08:05.331Z,40.88
2022-11-20T09:08:55.629Z,63.13
2022-11-20T09:09:42.523Z,62.13
2022-11-20T09:10:29.565Z,46.03
2022-11-20T09:11:16.412Z,68.22
2022-11-20T09:12:03.797Z,44.90
2022-11-20T09:12:53.921Z,32.17
2022-11-20T09:13:40.838Z,30.33
2022-11-20T09:14:30.522Z,33.25
2022-11-20T09:15:17.436Z,39.58
2022-11-20T09:16:07.886Z,56.90
2022-11-20T09:16:54.875Z,41.92
2022-11-20T09:17:41.727Z,38.08
2022-11-20T09:18:29.708Z,37.08
2022-11-20T09:20:24.026Z,42.40
2022-11-20T09:21:15.504Z,47.40
2022-11-20T09:22:02.579Z,38.38
2022-11-20T09:22:49.476Z,34.38
2022-11-20T09:23:37.041Z,31.35
2022-11-20T09:24:24.517Z,32.38
2022-11-20T09:25:11.528Z,33.03
2022-11-20T09:26:03.178Z,34.08
2022-11-20T09:26:50.067Z,32.85
2022-11-20T09:27:37.278Z,31.12
2022-11-20T09:28:24.237Z,32.38
2022-11-20T09:29:11.960Z,32.05
2022-11-20T09:29:58.940Z,32.22
2022-11-20T09:30:46.115Z,31.77
2022-11-20T09:31:32.937Z,32.88
2022-11-20T09:32:19.829Z,31.30
2022-11-20T09:33:08.068Z,30.83
2022-11-20T09:33:55.023Z,30.15
2022-11-20T09:34:41.890Z,30.85
2022-11-20T09:35:29.088Z,31.25
2022-11-20T09:36:17.147Z,32.58
2022-11-20T09:37:10.499Z,30.73
2022-11-20T09:37:57.466Z,30.85
2022-11-20T09:38:44.495Z,31.02
2022-11-20T09:39:31.568Z,31.00
2022-11-20T09:40:23.228Z,32.42
2022-11-20T09:41:35.159Z,30.65
2022-11-20T09:42:41.980Z,31.17
2022-11-20T09:44:03.137Z,30.92
2022-11-20T09:44:56.407Z,30.02
2022-11-20T09:45:56.717Z,29.77
2022-11-20T09:47:11.927Z,31.05
2022-11-20T09:48:18.177Z,30.05
2022-11-20T09:49:09.006Z,31.30
2022-11-20T09:50:27.248Z,31.52
2022-11-20T09:51:27.479Z,30.73
2022-11-20T09:52:31.668Z,31.52
2022-11-20T09:53:30.877Z,31.25
2022-11-20T09:54:24.322Z,32.80
2022-11-20T09:55:13.478Z,31.30
2022-11-20T09:56:02.688Z,30.95
2022-11-20T09:57:00.617Z,32.90
2022-11-20T09:57:48.657Z,32.13
2022-11-20T09:58:47.077Z,33.03
2022-11-20T09:59:44.237Z,30.65
2022-11-20T10:00:32.771Z,31.35
2022-11-20T10:01:21.979Z,32.88
2022-11-20T10:02:30.877Z,34.10
2022-11-20T10:03:43.107Z,41.13
2022-11-20T10:04:36.716Z,39.90
2022-11-20T10:05:28.947Z,46.75
2022-11-20T10:06:19.238Z,38.25
2022-11-20T10:07:32.964Z,35.08
2022-11-20T10:08:22.810Z,33.42
2022-11-20T10:09:12.773Z,31.02
2022-11-20T10:09:59.996Z,33.88
2022-11-20T10:10:53.735Z,32.15
2022-11-20T10:11:58.108Z,33.00
2022-11-20T10:13:14.261Z,32.90
2022-11-20T10:14:06.737Z,33.28
2022-11-20T10:14:53.507Z,33.00
2022-11-20T10:15:59.277Z,32.95
2022-11-20T10:17:07.119Z,32.50
2022-11-20T10:18:03.500Z,31.73
2022-11-20T10:19:03.387Z,32.28
2022-11-20T10:20:08.218Z,33.22
2022-11-20T10:21:16.682Z,32.47
2022-11-20T10:22:11.216Z,31.85
2022-11-20T10:22:58.232Z,33.38
2022-11-20T10:23:59.918Z,34.33
2022-11-20T10:24:59.797Z,33.13
2022-11-20T10:26:07.602Z,32.53
2022-11-20T10:27:18.279Z,33.65
2022-11-20T10:28:23.739Z,31.35
2022-11-20T10:29:29.637Z,30.58
2022-11-20T10:30:19.366Z,30.50
2022-11-20T10:31:11.656Z,30.67
2022-11-20T10:32:08.491Z,31.77
2022-11-20T10:33:07.449Z,32.80
2022-11-20T10:34:11.622Z,33.03
2022-11-20T10:35:25.459Z,31.73
2022-11-20T10:36:29.756Z,30.70